Time;durP1;ratioP1;P1;durP2;ratioP2;P2;SDS_P1;SDS_P2;PMS_P1;PMS_P2;Temp;Humidity;BMP_temperature;BMP_pressure;BME280_temperature;BME280_humidity;BME280_pressure;Samples;Min_cycle;Max_cycle;Signal;HPM_P1;HPM_P2
2022/07/26 00:02:25;;;;;;;1.60;1.17;;;;;;;28.25;44.57;101000.28;5049296;28;20029;-71
2022/07/26 00:04:51;;;;;;;1.88;1.13;;;;;;;28.22;44.95;100997.78;5048224;28;20033;-71
2022/07/26 00:07:16;;;;;;;1.23;1.00;;;;;;;28.25;44.85;101000.28;5048189;28;20063;-71
2022/07/26 00:09:42;;;;;;;1.92;1.30;;;;;;;28.28;44.92;101003.75;5049564;28;20031;-71
2022/07/26 00:12:08;;;;;;;1.80;1.13;;;;;;;28.28;44.94;101004.59;5048037;28;20063;-70
2022/07/26 00:14:34;;;;;;;1.88;1.15;;;;;;;28.28;44.71;101003.75;5049145;28;20029;-71
2022/07/26 00:17:00;;;;;;;2.22;1.20;;;;;;;28.27;44.67;101005.56;5051717;28;20513;-71
2022/07/26 00:19:25;;;;;;;2.22;1.30;;;;;;;28.24;44.95;101000.34;5053916;28;20116;-71
2022/07/26 00:22:32;;;;;;;1.67;1.10;;;;;;;28.27;44.54;101004.69;5055586;28;20032;-71
2022/07/26 00:24:38;;;;;;;1.92;1.35;;;;;;;28.25;44.51;101007.44;5069324;28;20410;-71
2022/07/26 00:27:04;;;;;;;2.42;1.30;;;;;;;28.25;44.82;101008.31;5059381;28;20028;-71
2022/07/26 00:29:29;;;;;;;1.40;1.00;;;;;;;28.28;44.83;101007.28;5056683;28;20090;-71
2022/07/26 00:31:57;;;;;;;1.40;1.00;;;;;;;28.27;45.03;101012.72;5051015;28;20506;-71
2022/07/26 00:34:22;;;;;;;1.80;1.20;;;;;;;28.25;44.78;101015.50;5064620;28;20112;-71
2022/07/26 00:36:48;;;;;;;1.85;1.27;;;;;;;28.26;44.66;101017.22;5051632;28;20122;-70
2022/07/26 00:39:13;;;;;;;1.50;1.15;;;;;;;28.26;44.91;101017.22;5066365;28;20041;-71
2022/07/26 00:41:38;;;;;;;1.58;1.10;;;;;;;28.25;44.63;101016.34;5054674;28;20041;-71
2022/07/26 00:44:04;;;;;;;1.90;1.10;;;;;;;28.24;44.51;101017.31;5054501;28;20060;-70
2022/07/26 00:46:30;;;;;;;2.03;1.23;;;;;;;28.24;45.05;101021.81;5068900;28;20032;-71
2022/07/26 00:48:55;;;;;;;1.73;1.15;;;;;;;28.21;44.90;101014.81;5068805;28;20111;-71
2022/07/26 00:51:21;;;;;;;2.38;1.10;;;;;;;28.22;44.85;101024.59;5048288;28;20617;-71
2022/07/26 00:53:47;;;;;;;1.88;1.20;;;;;;;28.23;44.80;101023.66;5064364;28;20506;-71
2022/07/26 00:56:14;;;;;;;1.45;1.13;;;;;;;28.21;44.70;101028.22;5052349;28;20039;-71
2022/07/26 00:58:41;;;;;;;2.40;1.20;;;;;;;28.22;44.87;101026.41;5052952;28;20479;-71
2022/07/26 01:01:07;;;;;;;1.98;1.20;;;;;;;28.22;44.99;101023.72;5061330;28;20071;-71
2022/07/26 01:03:33;;;;;;;2.08;1.25;;;;;;;28.20;44.81;101026.50;5065343;28;20123;-71
2022/07/26 01:05:58;;;;;;;2.58;1.20;;;;;;;28.20;44.93;101025.63;5071059;28;20040;-71
2022/07/26 01:08:24;;;;;;;3.55;1.30;;;;;;;28.19;44.75;101034.63;5053490;28;20111;-71
2022/07/26 01:10:50;;;;;;;1.60;1.20;;;;;;;28.20;44.66;101031.84;5070949;28;20031;-71
2022/07/26 01:13:21;;;;;;;1.95;1.20;;;;;;;28.18;44.99;101027.50;5057796;28;20059;-71
2022/07/26 01:15:47;;;;;;;2.33;1.20;;;;;;;28.20;44.97;101026.50;5052315;28;20083;-70
2022/07/26 01:18:12;;;;;;;1.65;1.15;;;;;;;28.21;44.97;101027.34;5060888;28;20428;-71
2022/07/26 01:20:38;;;;;;;2.05;1.20;;;;;;;28.19;44.64;101030.13;5060287;28;20094;-71
2022/07/26 01:23:06;;;;;;;1.75;1.10;;;;;;;28.17;44.76;101028.50;5052109;28;20033;-70
2022/07/26 01:25:35;;;;;;;2.70;1.30;;;;;;;28.17;45.13;101032.03;5052362;28;20713;-71
2022/07/26 01:28:01;;;;;;;1.42;1.00;;;;;;;28.16;44.63;101033.00;5060474;28;20372;-71
2022/07/26 01:30:26;;;;;;;2.50;1.30;;;;;;;28.17;44.79;101034.72;5051937;28;20112;-70
2022/07/26 01:32:51;;;;;;;1.30;1.00;;;;;;;28.16;45.00;101027.63;5059004;28;20155;-71
2022/07/26 01:35:17;;;;;;;1.65;1.05;;;;;;;28.15;45.00;101027.72;5051942;28;20039;-71
2022/07/26 01:37:42;;;;;;;1.50;1.20;;;;;;;28.16;44.89;101024.09;5057155;28;20104;-71
2022/07/26 01:40:09;;;;;;;2.60;1.20;;;;;;;28.14;44.88;101024.16;5051770;28;20756;-71
2022/07/26 01:42:34;;;;;;;1.88;1.20;;;;;;;28.15;44.83;101025.91;5051494;28;20061;-71
2022/07/26 01:45:00;;;;;;;1.48;1.00;;;;;;;28.16;44.65;101024.09;5066017;28;20093;-71
2022/07/26 01:47:25;;;;;;;1.80;1.00;;;;;;;28.16;44.74;101029.44;5071722;28;20458;-71
2022/07/26 01:49:51;;;;;;;1.60;1.08;;;;;;;28.14;44.87;101017.94;5052016;28;20033;-71
2022/07/26 01:52:17;;;;;;;2.38;1.00;;;;;;;28.14;44.97;101024.16;5060975;28;20040;-70
2022/07/26 01:54:43;;;;;;;2.05;1.10;;;;;;;28.15;44.93;101022.34;5058239;28;20029;-70
2022/07/26 01:57:08;;;;;;;2.33;1.30;;;;;;;28.14;44.52;101026.84;5050371;28;20090;-71
2022/07/26 01:59:33;;;;;;;2.25;1.20;;;;;;;28.13;44.85;101037.59;5050995;28;20033;-71
2022/07/26 02:01:59;;;;;;;2.13;1.10;;;;;;;28.13;44.97;101034.94;5063076;28;20036;-71
2022/07/26 02:07:08;;;;;;;1.77;1.00;;;;;;;28.11;44.93;101024.31;5069286;28;20038;-71
2022/07/26 02:09:33;;;;;;;1.27;1.00;;;;;;;28.14;44.88;101025.97;5059820;28;20642;-71
2022/07/26 02:12:01;;;;;;;1.52;0.98;;;;;;;28.10;45.04;101027.94;5051454;28;20029;-71
2022/07/26 02:14:26;;;;;;;1.88;1.00;;;;;;;28.08;44.72;101021.78;5051285;28;20486;-71
2022/07/26 02:16:58;;;;;;;1.92;1.00;;;;;;;28.09;44.98;101034.25;5050200;28;20087;-70
2022/07/26 02:19:23;;;;;;;1.67;1.23;;;;;;;28.10;45.02;101027.06;5051077;28;20055;-71
2022/07/26 02:21:49;;;;;;;1.75;1.00;;;;;;;28.08;45.33;101027.16;5051677;28;20028;-71
2022/07/26 02:24:15;;;;;;;2.00;1.10;;;;;;;28.08;44.93;101027.16;5056252;28;20386;-71
2022/07/26 02:26:40;;;;;;;1.70;1.10;;;;;;;28.08;44.79;101034.34;5050875;28;20029;-71
2022/07/26 02:29:06;;;;;;;1.67;1.10;;;;;;;28.08;44.75;101026.28;5050611;28;20028;-71
2022/07/26 02:31:32;;;;;;;1.70;1.20;;;;;;;28.09;44.80;101036.06;5062796;28;20024;-71
2022/07/26 02:33:57;;;;;;;1.33;1.00;;;;;;;28.08;44.67;101040.56;5063615;28;20052;-71
2022/07/26 02:36:22;;;;;;;1.48;1.05;;;;;;;28.07;44.98;101043.31;5058569;28;20108;-71
2022/07/26 02:38:48;;;;;;;2.05;1.10;;;;;;;28.08;44.78;101039.69;5061215;28;20116;-71
2022/07/26 02:41:13;;;;;;;2.53;1.20;;;;;;;28.07;44.97;101044.19;5050640;28;20387;-71
2022/07/26 02:43:38;;;;;;;1.98;1.10;;;;;;;28.05;45.02;101054.16;5060328;28;20111;-71
2022/07/26 02:46:04;;;;;;;1.50;1.10;;;;;;;28.06;44.71;101050.50;5050616;28;20025;-71
2022/07/26 02:48:30;;;;;;;1.70;0.95;;;;;;;28.03;45.02;101053.38;5050613;28;20037;-71
2022/07/26 02:50:55;;;;;;;1.15;0.90;;;;;;;28.03;45.11;101055.16;5068378;28;20016;-71
2022/07/26 02:53:21;;;;;;;1.60;1.00;;;;;;;28.03;45.01;101052.50;5061185;28;20051;-71
2022/07/26 02:55:46;;;;;;;1.75;1.08;;;;;;;28.05;45.01;101056.84;5069365;28;20044;-71
2022/07/26 02:58:11;;;;;;;1.42;1.00;;;;;;;28.04;44.95;101067.63;5069371;28;20205;-71
2022/07/26 03:00:37;;;;;;;1.30;1.00;;;;;;;28.03;45.01;101066.75;5068170;28;20100;-70
2022/07/26 03:03:02;;;;;;;1.85;1.02;;;;;;;28.02;45.03;101059.66;5049111;28;20045;-71
2022/07/26 03:05:27;;;;;;;1.67;1.20;;;;;;;28.01;45.03;101071.34;5050393;28;20036;-70
2022/07/26 03:07:53;;;;;;;2.10;1.00;;;;;;;28.01;44.84;101068.66;5057599;28;20474;-71
2022/07/26 03:10:18;;;;;;;1.95;1.10;;;;;;;28.01;44.77;101071.34;5051495;28;20479;-70
2022/07/26 03:12:44;;;;;;;1.52;1.05;;;;;;;28.00;44.82;101066.91;5048362;28;20041;-71
2022/07/26 03:15:10;;;;;;;1.80;1.15;;;;;;;28.01;44.96;101073.16;5069747;28;20060;-70
2022/07/26 03:17:35;;;;;;;1.48;0.93;;;;;;;27.99;44.96;101089.34;5058226;28;20025;-71
2022/07/26 03:20:01;;;;;;;1.40;0.95;;;;;;;27.98;44.89;101090.28;5065532;28;20024;-71
2022/07/26 03:22:26;;;;;;;1.60;1.00;;;;;;;27.98;45.10;101095.63;5052890;28;20388;-71
2022/07/26 03:24:52;;;;;;;2.03;1.15;;;;;;;27.97;44.90;101099.25;5051579;28;20029;-70
2022/07/26 03:27:17;;;;;;;1.42;1.00;;;;;;;27.98;44.75;101109.03;5057136;28;20136;-71
2022/07/26 03:29:42;;;;;;;1.58;0.90;;;;;;;27.98;44.98;101102.81;5068582;28;20032;-71
2022/07/26 03:32:08;;;;;;;1.80;1.10;;;;;;;27.98;44.85;101103.69;5069676;28;20035;-70
2022/07/26 03:34:34;;;;;;;1.40;0.90;;;;;;;27.99;44.81;101101.88;5069112;28;20033;-70
2022/07/26 03:36:59;;;;;;;1.48;1.10;;;;;;;27.97;44.96;101103.75;5069685;28;20459;-71
2022/07/26 03:39:25;;;;;;;1.48;1.00;;;;;;;27.96;45.09;101104.69;5053775;28;20033;-71
2022/07/26 03:41:50;;;;;;;1.17;0.90;;;;;;;27.97;44.94;101107.31;5061419;28;20055;-71
2022/07/26 03:44:30;;;;;;;1.75;1.10;;;;;;;27.98;44.95;101121.56;5015672;28;20049;-71
2022/07/26 03:46:56;;;;;;;1.77;1.10;;;;;;;27.97;44.69;101122.50;5051228;28;20121;-70
2022/07/26 03:49:21;;;;;;;1.80;1.15;;;;;;;27.95;45.01;101130.63;5049458;28;20028;-71
2022/07/26 03:51:47;;;;;;;2.03;1.10;;;;;;;27.96;45.00;101127.00;5049179;28;20025;-71
2022/07/26 03:54:12;;;;;;;1.50;1.02;;;;;;;27.95;45.00;101122.59;5058314;28;20032;-71
2022/07/26 03:56:38;;;;;;;1.65;1.10;;;;;;;27.94;44.94;101128.91;5047903;28;20028;-71
2022/07/26 03:59:07;;;;;;;1.15;0.95;;;;;;;27.95;44.94;101130.63;5049534;28;20029;-71
2022/07/26 04:01:40;;;;;;;1.95;1.17;;;;;;;27.94;44.71;101133.38;5056729;28;20055;-71
2022/07/26 04:04:09;;;;;;;2.08;1.10;;;;;;;27.93;44.86;101132.56;5049802;28;20041;-71
2022/07/26 04:06:35;;;;;;;1.98;1.13;;;;;;;27.93;45.18;101135.22;5066152;28;20542;-71
2022/07/26 04:09:01;;;;;;;1.80;1.00;;;;;;;27.94;44.75;101144.09;5053265;28;20025;-71
2022/07/26 04:11:26;;;;;;;1.70;1.05;;;;;;;27.92;44.68;101146.91;5067793;28;20462;-70
2022/07/26 04:13:51;;;;;;;1.30;0.93;;;;;;;27.92;45.17;101149.56;5051777;28;20025;-70
2022/07/26 04:16:17;;;;;;;1.25;0.90;;;;;;;27.91;45.08;101153.19;5050668;28;20055;-71
2022/07/26 04:18:42;;;;;;;1.80;0.85;;;;;;;27.90;44.84;101156.81;5052292;28;20025;-71
2022/07/26 04:21:08;;;;;;;1.33;0.90;;;;;;;27.90;45.01;101158.63;5050972;28;20040;-71
2022/07/26 04:23:33;;;;;;;2.08;1.10;;;;;;;27.89;45.08;101165.81;5049049;28;20056;-71
2022/07/26 04:25:59;;;;;;;1.50;1.05;;;;;;;27.88;45.01;101174.78;5050279;28;20435;-71
2022/07/26 04:28:27;;;;;;;2.08;1.00;;;;;;;27.87;45.09;101167.72;5051868;28;20442;-70
2022/07/26 04:30:53;;;;;;;1.60;1.10;;;;;;;27.90;45.04;101172.03;5062799;28;20089;-70
2022/07/26 04:33:19;;;;;;;1.90;1.05;;;;;;;27.88;44.92;101182.81;5071580;28;20082;-71
2022/07/26 04:35:44;;;;;;;1.52;1.00;;;;;;;27.87;45.32;101182.94;5058288;28;20033;-71
2022/07/26 04:38:09;;;;;;;1.67;1.10;;;;;;;27.87;45.02;101174.91;5052834;28;20044;-70
2022/07/26 04:40:35;;;;;;;1.60;0.93;;;;;;;27.87;45.03;101177.56;5052936;28;20068;-71
2022/07/26 04:43:01;;;;;;;1.05;0.90;;;;;;;27.86;44.77;101174.03;5060450;28;20073;-71
2022/07/26 04:45:26;;;;;;;1.20;0.80;;;;;;;27.86;45.23;101179.38;5052371;28;20380;-71
2022/07/26 04:47:52;;;;;;;1.40;1.00;;;;;;;27.86;44.96;101176.69;5054532;28;20581;-71
2022/07/26 04:50:19;;;;;;;1.58;1.00;;;;;;;27.86;44.96;101184.75;5063586;28;20040;-72
2022/07/26 04:52:45;;;;;;;2.13;0.90;;;;;;;27.86;45.25;101184.75;5066380;28;20544;-71
2022/07/26 04:55:10;;;;;;;1.85;0.98;;;;;;;27.88;45.24;101190.00;5055769;28;20037;-72
2022/07/26 04:57:36;;;;;;;1.52;0.90;;;;;;;27.87;44.89;101189.16;5062214;28;20032;-70
2022/07/26 05:00:04;;;;;;;1.50;0.90;;;;;;;27.88;44.67;101190.00;5067368;28;20077;-71
2022/07/26 05:02:29;;;;;;;1.83;0.90;;;;;;;27.87;45.16;101199.88;5065441;28;20036;-71
2022/07/26 05:04:55;;;;;;;1.67;0.90;;;;;;;27.88;45.07;101206.94;5072010;28;20359;-71
2022/07/26 05:07:20;;;;;;;1.45;1.00;;;;;;;27.87;44.76;101205.25;5072517;28;20101;-71
2022/07/26 05:09:45;;;;;;;1.23;0.93;;;;;;;27.86;44.92;101214.22;5064522;28;20056;-71
2022/07/26 05:12:11;;;;;;;1.52;0.90;;;;;;;27.86;44.81;101211.53;5060710;28;20111;-71
2022/07/26 05:14:36;;;;;;;1.30;0.93;;;;;;;27.88;44.79;101219.47;5052326;28;20036;-71
2022/07/26 05:17:02;;;;;;;1.60;1.13;;;;;;;27.85;44.94;101223.19;5054091;28;20758;-70
2022/07/26 05:19:28;;;;;;;1.10;0.90;;;;;;;27.85;45.10;101231.25;5051971;28;20033;-71
2022/07/26 05:21:53;;;;;;;1.77;1.00;;;;;;;27.84;44.75;101226.81;5035178;28;20098;-70
2022/07/26 05:24:18;;;;;;;1.33;0.95;;;;;;;27.84;44.85;101233.03;5070280;28;20107;-71
2022/07/26 05:26:44;;;;;;;1.60;0.98;;;;;;;27.84;44.74;101238.41;5067330;28;20037;-71
2022/07/26 05:29:09;;;;;;;1.92;1.02;;;;;;;27.83;44.92;101239.34;5053554;28;20555;-72
2022/07/26 05:31:34;;;;;;;2.40;1.10;;;;;;;27.84;44.91;101242.91;5061061;28;20444;-71
2022/07/26 05:34:00;;;;;;;2.05;0.95;;;;;;;27.85;45.03;101240.16;5062155;28;20044;-71
2022/07/26 05:36:25;;;;;;;1.08;0.90;;;;;;;27.86;44.60;101249.06;5058796;28;20079;-70
2022/07/26 05:38:50;;;;;;;1.65;1.10;;;;;;;27.84;44.75;101238.41;5066477;28;20093;-71
2022/07/26 05:41:16;;;;;;;1.30;0.88;;;;;;;27.85;44.86;101244.63;5054154;28;20060;-71
2022/07/26 05:43:41;;;;;;;1.65;1.10;;;;;;;27.83;44.98;101249.19;5062294;28;20045;-71
2022/07/26 05:46:06;;;;;;;1.63;0.90;;;;;;;27.84;44.56;101254.47;5062837;28;20032;-71
2022/07/26 05:48:33;;;;;;;1.75;0.93;;;;;;;27.84;44.63;101258.97;5056149;28;20078;-71
2022/07/26 05:50:59;;;;;;;1.70;0.98;;;;;;;27.84;44.76;101256.28;5059931;28;20054;-71
2022/07/26 05:53:25;;;;;;;1.23;0.90;;;;;;;27.83;44.62;101262.59;5071146;28;20029;-70
2022/07/26 05:55:51;;;;;;;1.60;0.90;;;;;;;27.83;44.60;101274.19;5058018;28;20078;-71
2022/07/26 05:58:16;;;;;;;1.60;0.90;;;;;;;27.82;44.74;101279.63;5071389;28;20123;-71
2022/07/26 06:00:42;;;;;;;1.73;1.00;;;;;;;27.82;44.76;101285.84;5069328;28;20028;-71
2022/07/26 06:03:22;;;;;;;1.48;0.88;;;;;;;27.82;45.01;101285.84;5051436;28;20043;-71
2022/07/26 06:05:48;;;;;;;2.17;0.95;;;;;;;27.82;44.70;101287.66;5051390;28;20388;-71
2022/07/26 06:08:14;;;;;;;0.95;0.80;;;;;;;27.81;44.73;101294.81;5050980;28;20748;-71
2022/07/26 06:10:39;;;;;;;1.20;0.90;;;;;;;27.82;44.60;101303.72;5059476;28;20040;-71
2022/07/26 06:13:05;;;;;;;1.63;0.90;;;;;;;27.82;44.69;101303.72;5050989;28;20037;-71
2022/07/26 06:15:30;;;;;;;1.02;0.80;;;;;;;27.84;44.62;101312.56;5060028;28;20039;-72
2022/07/26 06:17:55;;;;;;;1.05;0.80;;;;;;;27.81;44.87;101305.53;5060360;28;20059;-70
2022/07/26 06:20:21;;;;;;;1.60;0.93;;;;;;;27.84;44.44;101312.56;5051303;28;20175;-71
2022/07/26 06:22:46;;;;;;;1.73;0.90;;;;;;;27.83;44.62;101317.06;5056102;28;20112;-71
2022/07/26 06:25:11;;;;;;;1.08;0.80;;;;;;;27.83;44.56;101314.38;5053929;28;20061;-71
2022/07/26 06:27:37;;;;;;;1.10;0.80;;;;;;;27.84;44.35;101323.28;5066494;28;20036;-71
2022/07/26 06:30:03;;;;;;;1.88;0.90;;;;;;;27.85;44.63;101319.66;5070762;28;20060;-71
2022/07/26 06:32:28;;;;;;;1.90;0.80;;;;;;;27.85;44.63;101327.69;5056337;28;20419;-70
2022/07/26 06:34:53;;;;;;;1.40;0.85;;;;;;;27.83;44.61;101333.13;5063807;28;20115;-71
2022/07/26 06:37:19;;;;;;;1.65;0.80;;;;;;;27.85;44.44;101338.41;5068657;28;20064;-71
2022/07/26 06:39:45;;;;;;;1.95;0.85;;;;;;;27.85;44.34;101339.28;5055103;28;20041;-71
2022/07/26 06:42:10;;;;;;;1.63;0.93;;;;;;;27.89;44.08;101347.16;5056091;28;20099;-71
2022/07/26 06:44:35;;;;;;;1.10;0.82;;;;;;;27.90;44.26;101343.53;5066536;28;20064;-70
2022/07/26 06:47:01;;;;;;;1.50;0.80;;;;;;;27.88;44.32;101342.75;5051024;28;20131;-70
2022/07/26 06:49:26;;;;;;;1.15;0.75;;;;;;;27.89;43.98;101357.88;5051293;28;20025;-70
2022/07/26 06:51:51;;;;;;;1.63;0.75;;;;;;;27.91;44.16;101350.63;5053609;28;20033;-71
2022/07/26 06:54:17;;;;;;;2.17;1.00;;;;;;;27.89;44.29;101350.72;5048893;28;20017;-70
2022/07/26 06:56:42;;;;;;;1.10;0.90;;;;;;;27.93;44.00;101359.47;5063378;28;20398;-70
2022/07/26 06:59:08;;;;;;;1.77;0.70;;;;;;;27.91;43.84;101356.88;5070304;28;20044;-70
2022/07/26 07:01:33;;;;;;;1.80;0.73;;;;;;;27.93;43.89;101359.47;5061157;28;20085;-70
2022/07/26 07:03:59;;;;;;;1.50;0.75;;;;;;;27.92;43.92;101358.59;5070233;28;20113;-71
2022/07/26 07:06:24;;;;;;;1.63;0.80;;;;;;;27.94;43.94;101366.53;5056273;28;20383;-71
2022/07/26 07:08:50;;;;;;;2.13;0.85;;;;;;;27.92;43.89;101363.97;5059325;28;20459;-70
2022/07/26 07:11:15;;;;;;;1.17;0.70;;;;;;;27.94;43.61;101361.19;5052662;28;20033;-70
2022/07/26 07:13:40;;;;;;;1.58;0.80;;;;;;;27.93;43.87;101365.72;5059063;28;20600;-70
2022/07/26 07:16:06;;;;;;;3.03;0.90;;;;;;;27.96;43.94;101375.38;5049868;28;20039;-70
2022/07/26 07:18:31;;;;;;;1.25;0.70;;;;;;;27.93;43.62;101373.75;5052990;28;20039;-70
2022/07/26 07:20:57;;;;;;;1.58;0.80;;;;;;;27.93;43.44;101373.75;5066583;28;20020;-70
2022/07/26 07:23:22;;;;;;;2.08;0.68;;;;;;;27.93;43.82;101378.22;5057876;28;20372;-70
2022/07/26 07:25:48;;;;;;;1.40;0.63;;;;;;;27.94;43.43;101379.94;5061796;28;20487;-70
2022/07/26 07:28:14;;;;;;;1.30;0.70;;;;;;;27.93;43.63;101376.44;5048361;28;20513;-70
2022/07/26 07:30:39;;;;;;;1.35;0.70;;;;;;;27.94;43.86;101370.09;5064211;28;20115;-69
2022/07/26 07:33:04;;;;;;;0.90;0.70;;;;;;;27.96;43.66;101381.63;5056206;28;20025;-70
2022/07/26 07:35:30;;;;;;;1.30;0.70;;;;;;;27.95;43.69;101382.56;5049715;28;20033;-70
2022/07/26 07:37:55;;;;;;;0.90;0.70;;;;;;;27.95;43.53;101395.94;5057015;28;20067;-70
2022/07/26 07:40:21;;;;;;;1.45;0.80;;;;;;;27.96;43.20;101407.53;5058941;28;20487;-70
2022/07/26 07:42:46;;;;;;;2.08;0.80;;;;;;;27.94;43.20;101401.38;5056565;28;20109;-71
2022/07/26 07:45:12;;;;;;;1.48;0.70;;;;;;;27.94;43.35;101407.63;5052224;28;20021;-71
2022/07/26 07:47:37;;;;;;;1.85;0.75;;;;;;;27.92;43.37;101404.16;5065787;28;20048;-71
2022/07/26 07:50:03;;;;;;;1.75;0.57;;;;;;;27.94;43.32;101407.63;5053010;28;20087;-70
2022/07/26 07:52:28;;;;;;;1.40;0.70;;;;;;;27.95;43.41;101406.69;5055714;28;20059;-70
2022/07/26 07:54:54;;;;;;;1.75;0.68;;;;;;;27.96;43.20;101412.91;5047962;28;20111;-70
2022/07/26 07:57:19;;;;;;;1.20;0.70;;;;;;;27.94;43.32;101412.97;5052744;28;20502;-70
2022/07/26 07:59:45;;;;;;;1.90;0.80;;;;;;;27.96;43.19;101418.28;5051780;28;20039;-70
2022/07/26 08:02:12;;;;;;;1.30;0.70;;;;;;;27.97;43.15;101418.19;5050532;28;20023;-71
2022/07/26 08:04:38;;;;;;;2.08;0.70;;;;;;;27.97;43.05;101418.19;5055383;28;20037;-70
2022/07/26 08:07:03;;;;;;;1.77;0.80;;;;;;;27.98;43.35;101427.09;5055450;28;20033;-70
2022/07/26 08:09:29;;;;;;;1.00;0.60;;;;;;;27.99;43.06;101419.00;5057807;28;20025;-70
2022/07/26 08:11:54;;;;;;;1.40;0.80;;;;;;;28.01;43.16;101421.56;5065927;28;20032;-70
2022/07/26 08:14:20;;;;;;;1.08;0.70;;;;;;;28.04;43.17;101424.13;5064695;28;20123;-70
2022/07/26 08:16:45;;;;;;;1.88;0.70;;;;;;;28.04;43.07;101422.31;5065095;28;20016;-70
2022/07/26 08:19:11;;;;;;;0.80;0.60;;;;;;;28.04;43.21;101422.31;5067942;28;20032;-70
2022/07/26 08:21:36;;;;;;;1.35;0.70;;;;;;;28.07;42.99;101424.81;5066853;28;20084;-70
2022/07/26 08:24:02;;;;;;;0.80;0.60;;;;;;;28.08;42.96;101423.00;5047409;28;20025;-70
2022/07/26 08:26:27;;;;;;;1.30;0.80;;;;;;;28.08;42.91;101421.19;5061660;28;20554;-71
2022/07/26 08:28:52;;;;;;;0.95;0.60;;;;;;;28.09;43.26;101422.94;5061237;28;20044;-71
2022/07/26 08:31:19;;;;;;;0.68;0.50;;;;;;;28.11;43.05;101429.09;5056046;28;20035;-71
2022/07/26 08:33:46;;;;;;;0.98;0.63;;;;;;;28.12;42.94;101432.63;5064470;28;20116;-70
2022/07/26 08:36:11;;;;;;;1.85;0.70;;;;;;;28.13;42.92;101437.03;5063195;28;20033;-70
2022/07/26 08:38:37;;;;;;;0.93;0.60;;;;;;;28.14;43.01;101438.81;5057986;28;20028;-70
2022/07/26 08:41:02;;;;;;;1.00;0.60;;;;;;;28.15;42.97;101444.09;5068760;28;20036;-70
2022/07/26 08:43:28;;;;;;;1.52;0.70;;;;;;;28.16;42.87;101455.69;5066080;28;20056;-71
2022/07/26 08:46:00;;;;;;;1.55;0.65;;;;;;;28.13;43.03;101459.41;5057825;28;20083;-69
2022/07/26 08:48:25;;;;;;;1.30;0.70;;;;;;;28.13;42.83;101461.16;5057051;28;20024;-70
2022/07/26 08:50:51;;;;;;;1.50;0.57;;;;;;;28.12;42.77;101465.66;5067072;28;20093;-70
2022/07/26 08:53:17;;;;;;;1.00;0.60;;;;;;;28.11;42.74;101469.31;5048923;28;20540;-70
2022/07/26 08:55:43;;;;;;;0.90;0.57;;;;;;;28.11;42.62;101468.44;5053237;28;20497;-70
2022/07/26 08:58:08;;;;;;;1.35;0.70;;;;;;;28.09;42.69;101465.84;5069176;28;20056;-70
2022/07/26 09:00:33;;;;;;;1.50;0.60;;;;;;;28.10;42.25;101470.25;5057737;28;20110;-71
2022/07/26 09:03:00;;;;;;;2.00;0.70;;;;;;;28.13;42.42;101469.22;5061958;28;20577;-70
2022/07/26 09:05:32;;;;;;;0.80;0.50;;;;;;;28.13;42.66;101472.78;5068757;28;20127;-70
2022/07/26 09:07:59;;;;;;;1.35;0.68;;;;;;;28.14;42.38;101479.03;5056835;28;20020;-70
2022/07/26 09:10:25;;;;;;;2.10;0.70;;;;;;;28.16;42.56;101479.84;5055670;28;20514;-70
2022/07/26 09:12:55;;;;;;;1.17;0.50;;;;;;;28.17;42.47;101479.75;5057221;28;20016;-70
2022/07/26 09:15:25;;;;;;;1.85;0.60;;;;;;;28.17;42.40;101486.94;5061577;28;20134;-70
2022/07/26 09:17:54;;;;;;;1.33;0.70;;;;;;;28.18;42.37;101494.00;5066038;28;20027;-71
2022/07/26 09:20:30;;;;;;;1.85;0.70;;;;;;;28.18;42.65;101494.88;5072508;28;20032;-71
2022/07/26 09:23:05;;;;;;;1.10;0.60;;;;;;;28.20;42.51;101495.69;5062252;28;20097;-70
2022/07/26 09:25:39;;;;;;;1.85;0.70;;;;;;;28.20;42.30;101503.72;5065696;28;20032;-70
2022/07/26 09:28:40;;;;;;;1.45;0.88;;;;;;;28.20;42.57;101508.22;5072304;28;20032;-71
2022/07/26 09:31:05;;;;;;;1.50;0.63;;;;;;;28.20;41.94;101510.91;5005812;28;20045;-70
2022/07/26 09:33:47;;;;;;;1.60;0.80;;;;;;;28.20;42.23;101509.09;5053487;28;20043;-70
2022/07/26 09:36:14;;;;;;;1.80;0.70;;;;;;;28.23;42.28;101513.44;5060966;28;20032;-71
2022/07/26 09:38:41;;;;;;;0.93;0.52;;;;;;;28.28;42.16;101502.47;5054699;28;20463;-70
2022/07/26 09:41:22;;;;;;;1.30;0.60;;;;;;;28.34;41.98;101512.91;5062025;28;20032;-70
2022/07/26 09:43:48;;;;;;;1.52;0.80;;;;;;;28.34;42.11;101510.22;5062626;28;20033;-71
2022/07/26 09:46:14;;;;;;;0.85;0.60;;;;;;;28.34;42.23;101516.44;5050764;28;20052;-70
2022/07/26 09:48:40;;;;;;;1.55;0.70;;;;;;;28.28;42.44;101516.75;5061063;28;20083;-71
2022/07/26 09:51:06;;;;;;;0.73;0.60;;;;;;;28.26;42.58;101524.00;5064949;28;20371;-71
2022/07/26 09:53:44;;;;;;;0.95;0.60;;;;;;;28.27;42.29;101523.06;5057598;28;20055;-71
2022/07/26 09:56:10;;;;;;;1.48;0.50;;;;;;;28.27;42.43;101525.75;5064148;28;20039;-71
2022/07/26 09:58:36;;;;;;;1.85;0.75;;;;;;;28.28;42.28;101529.28;5054808;28;20037;-71
2022/07/26 10:01:03;;;;;;;1.30;0.68;;;;;;;28.28;42.17;101542.69;5067237;28;20029;-70
2022/07/26 10:03:30;;;;;;;2.08;0.80;;;;;;;28.31;42.31;101537.16;5058482;28;20470;-70
2022/07/26 10:06:00;;;;;;;1.42;0.60;;;;;;;28.28;42.05;101542.69;5052559;28;20024;-71
2022/07/26 10:08:26;;;;;;;1.20;0.50;;;;;;;28.30;42.13;101546.19;5059854;28;20025;-70
2022/07/26 10:11:01;;;;;;;1.75;0.70;;;;;;;28.34;42.24;101537.03;5063353;28;20028;-70
2022/07/26 10:13:28;;;;;;;3.03;0.88;;;;;;;28.36;42.11;101544.03;5057984;28;20035;-70
2022/07/26 10:15:55;;;;;;;1.20;0.60;;;;;;;28.34;42.25;101548.63;5057614;28;20036;-70
2022/07/26 10:18:35;;;;;;;1.33;0.65;;;;;;;28.35;41.93;101547.69;5051822;28;20041;-70
2022/07/26 10:21:25;;;;;;;2.00;0.80;;;;;;;28.34;42.26;101547.75;5060514;28;20044;-70
2022/07/26 10:23:57;;;;;;;1.77;0.65;;;;;;;28.34;41.82;101559.34;5065990;28;20493;-71
2022/07/26 10:26:31;;;;;;;1.63;0.70;;;;;;;28.34;41.82;101563.84;5065452;28;20083;-70
2022/07/26 10:29:18;;;;;;;1.67;0.80;;;;;;;28.34;41.71;101563.84;5054105;28;20108;-70
2022/07/26 10:31:59;;;;;;;1.48;0.60;;;;;;;28.31;42.01;101570.22;5050848;28;20033;-71
2022/07/26 10:34:35;;;;;;;1.00;0.60;;;;;;;28.32;41.63;101574.63;5063091;28;20139;-70
2022/07/26 10:37:03;;;;;;;1.63;0.60;;;;;;;28.34;41.87;101578.13;5066144;28;20032;-71
2022/07/26 10:39:29;;;;;;;2.20;0.90;;;;;;;28.33;41.52;101578.19;5052656;28;20017;-71
2022/07/26 10:41:59;;;;;;;2.17;0.70;;;;;;;28.35;41.81;101584.38;5058792;28;20194;-70
2022/07/26 10:44:30;;;;;;;1.55;0.70;;;;;;;28.35;41.63;101585.25;5067447;28;20032;-70
2022/07/26 10:46:58;;;;;;;1.92;0.80;;;;;;;28.33;41.52;101581.75;5056692;28;20028;-70
2022/07/26 10:49:31;;;;;;;2.47;0.80;;;;;;;28.35;41.36;101585.25;5060298;28;20028;-69
2022/07/26 10:52:27;;;;;;;3.13;0.70;;;;;;;28.38;41.37;101589.56;5059133;28;20032;-70
2022/07/26 10:54:55;;;;;;;2.00;0.73;;;;;;;28.39;41.48;101586.81;5048388;28;20044;-70
2022/07/26 10:57:41;;;;;;;2.00;0.82;;;;;;;28.40;41.52;101582.31;5050542;28;20621;-71
2022/07/26 11:00:13;;;;;;;2.58;0.88;;;;;;;28.40;41.29;101590.38;5057785;28;20045;-71
2022/07/26 11:02:39;;;;;;;1.73;0.70;;;;;;;28.40;41.23;101590.38;5050173;28;20020;-71
2022/07/26 11:05:13;;;;;;;1.80;0.70;;;;;;;28.38;41.55;101601.16;5068057;28;20467;-70
2022/07/26 11:07:53;;;;;;;1.73;0.80;;;;;;;28.38;41.28;101602.97;5067363;28;20024;-70
2022/07/26 11:10:30;;;;;;;2.35;0.80;;;;;;;28.36;41.37;101605.72;5060664;28;20094;-70
2022/07/26 11:13:00;;;;;;;2.00;0.90;;;;;;;28.39;41.12;101613.63;5048410;28;20024;-71
2022/07/26 11:15:25;;;;;;;2.22;0.70;;;;;;;28.41;41.33;101610.88;5062403;28;20081;-71
2022/07/26 11:17:50;;;;;;;2.58;0.90;;;;;;;28.40;41.53;101610.00;5058629;28;20037;-70
2022/07/26 11:20:25;;;;;;;1.90;0.70;;;;;;;28.41;41.35;101609.06;5065794;28;20495;-69
2022/07/26 11:22:50;;;;;;;1.42;0.70;;;;;;;28.43;41.47;101614.34;5047952;28;20033;-70
2022/07/26 11:25:20;;;;;;;2.20;0.80;;;;;;;28.42;41.29;101615.31;5060080;28;20023;-70
2022/07/26 11:28:03;;;;;;;1.40;0.60;;;;;;;28.41;41.31;101608.19;5065505;28;20619;-70